Maersk Nimes — VRFO7 — position and weather

sailwx.info

Track history (hours):
 
Tides and Currents Weather Stations Pressure Air Temp Water Temp Dewpoint Dewpoint Depression Visibility Wind Speed Wind Dir Waves Ship Positions

Maersk Nimes

Last reported at 2016-Oct-01 04:31 UTC. Time now 2016-Oct-01 08:40 UTC.
Position N 53°35' E 008°31'.

Length 210 m; draft 10.2 m.

Type: Cargo ship. MMSI: 477559200.

Date/timePositionNaut miles runAvg speedWind from/ knotsBaromVisibWave heightAir tempDewpointWater temp
2016-Oct-01 04:31N 53°35' E 008°31'0 0.0
2016-Oct-01 03:31N 53°35' E 008°31'0 0.0
2016-Oct-01 00:31N 53°35' E 008°31'0 0.0
2016-Sep-30 22:31N 53°35' E 008°31'0 0.0
2016-Sep-30 20:31N 53°35' E 008°31'15 5.1
2016-Sep-30 17:33N 53°45' E 008°12'1616.0
2016-Sep-30 16:33N 53°53' E 007°48'3316.7
2016-Sep-30 14:33N 54°21' E 007°18'1918.6
2016-Sep-30 13:34N 54°39' E 007°09'5518.4
2016-Sep-30 10:33N 55°34' E 007°06'175 9.2
2016-Sep-29 15:33N 57°47' E 010°33'8 8.1
2016-Sep-29 14:32N 57°43' E 010°46'1010.0
2016-Sep-29 13:33N 57°39' E 011°03'15812.2
2016-Sep-29 00:33N 55°01' E 010°59'27 9.1
2016-Sep-28 21:33N 54°35' E 011°14'2612.8
2016-Sep-28 19:33N 54°26' E 011°55'9112.9
2016-Sep-28 12:33N 55°09' E 014°14'5313.4
2016-Sep-28 08:33N 55°40' E 015°31'10511.6
2016-Sep-27 23:31N 56°15' E 018°27'28112.2
2016-Sep-27 00:33N 59°46' E 024°16'5312.7
2016-Sep-26 20:23N 59°56' E 025°59'1312.8
2016-Sep-26 19:22N 60°00' E 026°24'4612.0
2016-Sep-26 15:33N 60°11' E 027°53'2512.4
2016-Sep-26 13:33N 60°03' E 028°41'2512.3
2016-Sep-26 11:33N 60°02' E 029°30'23 7.5
2016-Sep-26 08:33N 59°53' E 030°11'0 0.0
2016-Sep-26 02:33N 59°53' E 030°11'0 0.0
2016-Sep-26 01:33N 59°53' E 030°11'0 0.0
2016-Sep-26 00:33N 59°53' E 030°11'0 0.0
2016-Sep-25 21:33N 59°53' E 030°11'0 0.0
2016-Sep-25 17:30N 59°53' E 030°11'0 0.0
2016-Sep-25 16:33N 59°53' E 030°11'0 0.0
2016-Sep-25 15:33N 59°53' E 030°11'0 0.0
2016-Sep-25 14:33N 59°53' E 030°11'0 0.0
2016-Sep-25 12:33N 59°53' E 030°11'0 0.0
2016-Sep-25 11:33N 59°53' E 030°11'0 0.0
2016-Sep-25 10:33N 59°53' E 030°11'0 0.0
2016-Sep-25 09:33N 59°53' E 030°11'0 0.0
2016-Sep-25 07:33N 59°53' E 030°11'0 0.0
2016-Sep-25 04:33N 59°53' E 030°11'0 0.0
2016-Sep-25 00:33N 59°53' E 030°11'1 0.6
2016-Sep-24 22:33N 59°54' E 030°14'0 0.0
2016-Sep-24 21:31N 59°54' E 030°14'0 0.0
2016-Sep-24 19:31N 59°54' E 030°14'0 0.0
2016-Sep-24 18:31N 59°54' E 030°14'0 0.0
2016-Sep-24 17:31N 59°54' E 030°14'0 0.0
2016-Sep-24 16:31N 59°54' E 030°14'0 0.0
2016-Sep-24 14:31N 59°54' E 030°14'0 0.0
2016-Sep-24 12:31N 59°54' E 030°14'0 0.0
2016-Sep-24 10:32N 59°54' E 030°14'0 0.0
2016-Sep-24 09:32N 59°54' E 030°14'0 0.0
2016-Sep-24 03:32N 59°54' E 030°14'2 2.5
2016-Sep-24 02:33N 59°54' E 030°09'9 9.1
2016-Sep-24 01:33N 59°57' E 029°52'1010.3
2016-Sep-24 00:33N 60°01' E 029°33'6412.7
2016-Sep-23 19:33N 60°05' E 027°26'3516.6
2016-Sep-23 17:28N 59°56' E 026°18'4017.3
2016-Sep-23 15:08N 59°47' E 025°00'2717.3
2016-Sep-23 13:33N 59°40' E 024°07'39615.8
2016-Sep-22 12:34N 55°25' E 014°44'12415.5
2016-Sep-22 04:34N 54°29' E 011°31'1616.2
2016-Sep-22 03:33N 54°35' E 011°06'3612.1
2016-Sep-22 00:33N 55°12' E 011°05'7314.5
2016-Sep-21 19:33N 56°23' E 011°27'4514.9
2016-Sep-21 16:34N 57°08' E 011°38'9012.6
2016-Sep-21 09:24N 57°41' E 009°02'  
Track history (hours):
 
Tides and Currents Weather Stations Pressure Air Temp Water Temp Dewpoint Dewpoint Depression Visibility Wind Speed Wind Dir Waves Ship Positions

Maersk Nimes

Last reported at 2016-Oct-01 04:31 UTC. Time now 2016-Oct-01 08:40 UTC.
Position N 53°35' E 008°31'.

Length 210 m; draft 10.2 m.

Type: Cargo ship. MMSI: 477559200.

Date/timePositionNaut miles runAvg speedWind from/ knotsBaromVisibWave heightAir tempDewpointWater temp
2016-Oct-01 04:31N 53°35' E 008°31'0 0.0
2016-Oct-01 03:31N 53°35' E 008°31'0 0.0
2016-Oct-01 00:31N 53°35' E 008°31'0 0.0
2016-Sep-30 22:31N 53°35' E 008°31'0 0.0
2016-Sep-30 20:31N 53°35' E 008°31'15 5.1
2016-Sep-30 17:33N 53°45' E 008°12'1616.0
2016-Sep-30 16:33N 53°53' E 007°48'3316.7
2016-Sep-30 14:33N 54°21' E 007°18'1918.6
2016-Sep-30 13:34N 54°39' E 007°09'5518.4
2016-Sep-30 10:33N 55°34' E 007°06'175 9.2
2016-Sep-29 15:33N 57°47' E 010°33'8 8.1
2016-Sep-29 14:32N 57°43' E 010°46'1010.0
2016-Sep-29 13:33N 57°39' E 011°03'15812.2
2016-Sep-29 00:33N 55°01' E 010°59'27 9.1
2016-Sep-28 21:33N 54°35' E 011°14'2612.8
2016-Sep-28 19:33N 54°26' E 011°55'9112.9
2016-Sep-28 12:33N 55°09' E 014°14'5313.4
2016-Sep-28 08:33N 55°40' E 015°31'10511.6
2016-Sep-27 23:31N 56°15' E 018°27'28112.2
2016-Sep-27 00:33N 59°46' E 024°16'5312.7
2016-Sep-26 20:23N 59°56' E 025°59'1312.8
2016-Sep-26 19:22N 60°00' E 026°24'4612.0
2016-Sep-26 15:33N 60°11' E 027°53'2512.4
2016-Sep-26 13:33N 60°03' E 028°41'2512.3
2016-Sep-26 11:33N 60°02' E 029°30'23 7.5
2016-Sep-26 08:33N 59°53' E 030°11'0 0.0
2016-Sep-26 02:33N 59°53' E 030°11'0 0.0
2016-Sep-26 01:33N 59°53' E 030°11'0 0.0
2016-Sep-26 00:33N 59°53' E 030°11'0 0.0
2016-Sep-25 21:33N 59°53' E 030°11'0 0.0
2016-Sep-25 17:30N 59°53' E 030°11'0 0.0
2016-Sep-25 16:33N 59°53' E 030°11'0 0.0
2016-Sep-25 15:33N 59°53' E 030°11'0 0.0
2016-Sep-25 14:33N 59°53' E 030°11'0 0.0
2016-Sep-25 12:33N 59°53' E 030°11'0 0.0
2016-Sep-25 11:33N 59°53' E 030°11'0 0.0
2016-Sep-25 10:33N 59°53' E 030°11'0 0.0
2016-Sep-25 09:33N 59°53' E 030°11'0 0.0
2016-Sep-25 07:33N 59°53' E 030°11'0 0.0
2016-Sep-25 04:33N 59°53' E 030°11'0 0.0
2016-Sep-25 00:33N 59°53' E 030°11'1 0.6
2016-Sep-24 22:33N 59°54' E 030°14'0 0.0
2016-Sep-24 21:31N 59°54' E 030°14'0 0.0
2016-Sep-24 19:31N 59°54' E 030°14'0 0.0
2016-Sep-24 18:31N 59°54' E 030°14'0 0.0
2016-Sep-24 17:31N 59°54' E 030°14'0 0.0
2016-Sep-24 16:31N 59°54' E 030°14'0 0.0
2016-Sep-24 14:31N 59°54' E 030°14'0 0.0
2016-Sep-24 12:31N 59°54' E 030°14'0 0.0
2016-Sep-24 10:32N 59°54' E 030°14'0 0.0
2016-Sep-24 09:32N 59°54' E 030°14'0 0.0
2016-Sep-24 03:32N 59°54' E 030°14'2 2.5
2016-Sep-24 02:33N 59°54' E 030°09'9 9.1
2016-Sep-24 01:33N 59°57' E 029°52'1010.3
2016-Sep-24 00:33N 60°01' E 029°33'6412.7
2016-Sep-23 19:33N 60°05' E 027°26'3516.6
2016-Sep-23 17:28N 59°56' E 026°18'4017.3
2016-Sep-23 15:08N 59°47' E 025°00'2717.3
2016-Sep-23 13:33N 59°40' E 024°07'39615.8
2016-Sep-22 12:34N 55°25' E 014°44'12415.5
2016-Sep-22 04:34N 54°29' E 011°31'1616.2
2016-Sep-22 03:33N 54°35' E 011°06'3612.1
2016-Sep-22 00:33N 55°12' E 011°05'7314.5
2016-Sep-21 19:33N 56°23' E 011°27'4514.9
2016-Sep-21 16:34N 57°08' E 011°38'9012.6
2016-Sep-21 09:24N 57°41' E 009°02'  

Dump ship's entire track history